createdAt,value
2018-02-27T00:01:48.743Z,0.00
2018-02-27T00:02:48.255Z,0.00
2018-02-27T00:04:49.293Z,0.00
2018-02-27T00:05:49.289Z,0.00
2018-02-27T00:06:49.117Z,0.00
2018-02-27T00:07:49.070Z,0.00
2018-02-27T00:08:49.097Z,0.00
2018-02-27T00:09:49.101Z,0.00
2018-02-27T00:10:49.135Z,0.00
2018-02-27T00:11:49.069Z,0.00
2018-02-27T00:12:49.095Z,0.00
2018-02-27T00:13:49.057Z,0.00
2018-02-27T00:14:49.139Z,0.00
2018-02-27T00:15:48.318Z,0.00
2018-02-27T00:16:48.681Z,0.00
2018-02-27T00:17:46.944Z,0.00
2018-02-27T00:18:46.538Z,0.00
2018-02-27T00:19:46.748Z,0.00
2018-02-27T00:20:46.334Z,0.00
2018-02-27T00:21:46.321Z,0.00
2018-02-27T00:22:46.392Z,0.00
2018-02-27T00:23:46.240Z,0.00
2018-02-27T00:24:46.232Z,0.00
2018-02-27T00:25:46.078Z,0.00
2018-02-27T00:26:46.012Z,0.00
2018-02-27T00:27:46.169Z,0.00
2018-02-27T00:28:46.112Z,0.00
2018-02-27T00:29:46.009Z,0.00
2018-02-27T00:30:46.306Z,0.00
2018-02-27T00:31:45.843Z,0.00
2018-02-27T00:32:46.302Z,0.00
2018-02-27T00:33:45.730Z,0.00
2018-02-27T00:34:45.592Z,0.00
2018-02-27T00:35:46.305Z,0.00
2018-02-27T00:36:45.596Z,0.00
2018-02-27T00:37:46.301Z,0.00
2018-02-27T00:38:46.602Z,0.00
2018-02-27T00:39:45.936Z,0.00
2018-02-27T00:40:45.328Z,0.00
2018-02-27T00:41:45.808Z,0.00
2018-02-27T00:42:45.335Z,0.00
2018-02-27T00:43:45.202Z,0.00
2018-02-27T00:44:45.121Z,0.00
2018-02-27T00:45:45.006Z,0.00
2018-02-27T00:46:44.930Z,0.00
2018-02-27T00:47:44.936Z,0.00
2018-02-27T00:48:44.845Z,0.00
2018-02-27T00:49:44.776Z,0.00
2018-02-27T00:50:44.710Z,0.00
2018-02-27T00:51:45.306Z,0.00
2018-02-27T00:52:44.626Z,0.00
2018-02-27T00:53:44.829Z,0.00
2018-02-27T00:54:45.308Z,0.00
2018-02-27T00:55:44.438Z,0.00
2018-02-27T00:56:44.517Z,0.00
2018-02-27T00:57:45.301Z,0.00
2018-02-27T00:58:44.398Z,0.00
2018-02-27T00:59:44.255Z,0.00
2018-02-27T01:00:44.434Z,0.00
2018-02-27T01:01:44.274Z,0.00
2018-02-27T01:02:44.151Z,0.00
2018-02-27T01:03:44.299Z,0.00
2018-02-27T01:04:44.025Z,0.00
2018-02-27T01:05:43.923Z,0.00
2018-02-27T01:06:43.903Z,0.00
2018-02-27T01:07:44.009Z,0.00
2018-02-27T01:08:43.793Z,0.00
2018-02-27T01:09:43.815Z,0.00
2018-02-27T01:10:43.828Z,0.00
2018-02-27T01:11:43.731Z,0.00
2018-02-27T01:12:43.713Z,0.00
2018-02-27T01:13:43.511Z,0.00
2018-02-27T01:14:43.527Z,0.00
2018-02-27T01:15:43.423Z,0.00
2018-02-27T01:16:43.493Z,0.00
2018-02-27T01:17:43.297Z,0.00
2018-02-27T01:18:43.201Z,0.00
2018-02-27T01:19:43.267Z,0.00
2018-02-27T01:20:43.193Z,0.00
2018-02-27T01:21:43.081Z,0.00
2018-02-27T01:22:43.002Z,0.00
2018-02-27T01:23:42.990Z,0.00
2018-02-27T01:24:42.934Z,0.00
2018-02-27T01:25:43.311Z,0.00
2018-02-27T01:26:42.895Z,0.00
2018-02-27T01:27:42.713Z,0.00
2018-02-27T01:28:42.723Z,0.00
2018-02-27T01:29:42.624Z,0.00
2018-02-27T01:30:42.730Z,0.00
2018-02-27T01:31:42.646Z,0.00
2018-02-27T01:32:42.570Z,0.00
2018-02-27T01:33:42.392Z,0.00
2018-02-27T01:34:42.380Z,0.00
2018-02-27T01:35:42.353Z,0.00
2018-02-27T01:36:42.441Z,0.00
2018-02-27T01:37:42.815Z,0.00
2018-02-27T01:38:42.186Z,0.00
2018-02-27T01:39:42.800Z,0.00
2018-02-27T01:40:42.822Z,0.00
2018-02-27T01:41:42.193Z,0.00
2018-02-27T01:42:42.104Z,0.00
2018-02-27T01:43:42.099Z,0.00
2018-02-27T01:44:41.820Z,0.00
2018-02-27T01:45:41.884Z,0.00
2018-02-27T01:46:41.822Z,0.00
2018-02-27T01:47:41.838Z,0.00
2018-02-27T01:48:41.676Z,0.00
2018-02-27T01:49:41.562Z,0.00
2018-02-27T01:50:41.554Z,0.00
2018-02-27T01:51:41.540Z,0.00
2018-02-27T01:52:41.465Z,0.00
2018-02-27T01:53:41.364Z,0.00
2018-02-27T01:54:41.369Z,0.00
2018-02-27T01:55:41.293Z,0.00
2018-02-27T01:56:41.336Z,0.00
2018-02-27T01:57:41.808Z,0.00
2018-02-27T01:58:41.247Z,0.00
2018-02-27T01:59:41.026Z,0.00
2018-02-27T02:00:41.818Z,0.00
2018-02-27T02:01:40.930Z,0.00
2018-02-27T02:02:41.060Z,0.00
2018-02-27T02:03:40.781Z,0.00
2018-02-27T02:04:41.318Z,0.00
2018-02-27T02:05:40.691Z,0.00
2018-02-27T02:06:40.641Z,0.00
2018-02-27T02:07:40.706Z,0.00
2018-02-27T02:08:40.533Z,0.00
2018-02-27T02:09:41.301Z,0.00
2018-02-27T02:10:40.740Z,0.00
2018-02-27T02:11:40.434Z,0.00
2018-02-27T02:12:40.386Z,0.00
2018-02-27T02:13:40.289Z,0.00
2018-02-27T02:14:40.255Z,0.00
2018-02-27T02:15:40.220Z,0.00
2018-02-27T02:16:40.172Z,0.00
2018-02-27T02:17:40.136Z,0.00
2018-02-27T02:18:40.806Z,0.00
2018-02-27T02:19:39.981Z,0.00
2018-02-27T02:20:39.872Z,0.00
2018-02-27T02:21:39.817Z,0.00
2018-02-27T02:22:39.801Z,0.00
2018-02-27T02:23:39.818Z,0.00
2018-02-27T02:24:39.879Z,0.00
2018-02-27T02:25:39.600Z,0.00
2018-02-27T02:26:39.554Z,0.00
2018-02-27T02:27:39.547Z,0.00
2018-02-27T02:28:39.540Z,0.00
2018-02-27T02:29:39.564Z,0.00
2018-02-27T02:30:39.449Z,0.00
2018-02-27T02:31:39.264Z,0.00
2018-02-27T02:32:39.349Z,0.00
2018-02-27T02:33:39.238Z,0.00
2018-02-27T02:34:39.286Z,0.00
2018-02-27T02:35:39.179Z,0.00
2018-02-27T02:36:39.208Z,0.00
2018-02-27T02:37:39.192Z,0.00
2018-02-27T02:38:38.974Z,0.00
2018-02-27T02:39:39.812Z,0.00
2018-02-27T02:40:38.772Z,0.00
2018-02-27T02:41:38.759Z,0.00
2018-02-27T02:42:38.804Z,0.00
2018-02-27T02:43:38.710Z,0.00
2018-02-27T02:44:38.653Z,0.00
2018-02-27T02:45:38.651Z,0.00
2018-02-27T02:46:38.597Z,0.00
2018-02-27T02:47:38.591Z,0.00
2018-02-27T02:48:38.425Z,0.00
2018-02-27T02:49:38.508Z,0.00
2018-02-27T02:50:38.295Z,0.00
2018-02-27T02:51:38.215Z,0.00
2018-02-27T02:52:38.208Z,0.00
2018-02-27T02:53:38.103Z,0.00
2018-02-27T02:54:38.271Z,0.00
2018-02-27T02:55:37.979Z,0.00
2018-02-27T02:56:37.936Z,0.00
2018-02-27T02:57:37.987Z,0.00
2018-02-27T02:58:37.848Z,0.00
2018-02-27T02:59:37.781Z,0.00
2018-02-27T03:00:37.692Z,0.00
2018-02-27T03:01:37.684Z,0.00
2018-02-27T03:02:37.702Z,0.00
2018-02-27T03:03:37.652Z,0.00
2018-02-27T03:04:37.481Z,0.00
2018-02-27T03:05:37.507Z,0.00
2018-02-27T03:06:37.363Z,0.00
2018-02-27T03:07:37.336Z,0.00
2018-02-27T03:08:37.799Z,0.00
2018-02-27T03:09:37.364Z,0.00
2018-02-27T03:10:37.168Z,0.00
2018-02-27T03:11:37.805Z,0.00
2018-02-27T03:12:37.153Z,0.00
2018-02-27T03:13:37.039Z,0.00
2018-02-27T03:14:37.176Z,0.00
2018-02-27T03:15:36.893Z,0.00
2018-02-27T03:16:37.006Z,0.00
2018-02-27T03:17:36.816Z,0.00
2018-02-27T03:18:36.761Z,0.00
2018-02-27T03:19:36.747Z,0.00
2018-02-27T03:20:36.598Z,0.00
2018-02-27T03:21:36.727Z,0.00
2018-02-27T03:22:36.588Z,0.00
2018-02-27T03:23:36.446Z,0.00
2018-02-27T03:24:36.598Z,0.00
2018-02-27T03:25:36.503Z,0.00
2018-02-27T03:26:36.354Z,0.00
2018-02-27T03:27:36.295Z,0.00
2018-02-27T03:28:36.347Z,0.00
2018-02-27T03:29:36.806Z,0.00
2018-02-27T03:30:36.241Z,0.00
2018-02-27T03:31:36.084Z,0.00
2018-02-27T03:32:35.978Z,0.00
2018-02-27T03:33:35.943Z,0.00
2018-02-27T03:34:35.920Z,0.00
2018-02-27T03:35:36.010Z,0.00
2018-02-27T03:36:35.830Z,0.00
2018-02-27T03:37:35.702Z,0.00
2018-02-27T03:38:35.675Z,0.00
2018-02-27T03:39:35.667Z,0.00
2018-02-27T03:40:35.635Z,0.00
2018-02-27T03:41:35.504Z,0.00
2018-02-27T03:42:35.410Z,0.00
2018-02-27T03:43:35.332Z,0.00
2018-02-27T03:44:35.432Z,0.00
2018-02-27T03:45:35.401Z,0.00
2018-02-27T03:46:35.249Z,0.00
2018-02-27T03:47:35.800Z,0.00
2018-02-27T03:48:35.192Z,0.00
2018-02-27T03:49:35.136Z,0.00
2018-02-27T03:50:35.028Z,0.00
2018-02-27T03:51:35.044Z,0.00
2018-02-27T03:52:34.933Z,0.00
2018-02-27T03:53:34.832Z,0.00
2018-02-27T03:54:34.829Z,0.00
2018-02-27T03:55:34.712Z,0.00
2018-02-27T03:56:34.642Z,0.00
2018-02-27T03:57:34.604Z,0.00
2018-02-27T03:58:34.545Z,0.00
2018-02-27T03:59:35.304Z,0.00
2018-02-27T04:00:34.468Z,0.00
2018-02-27T04:01:34.469Z,0.00
2018-02-27T04:02:34.359Z,0.00
2018-02-27T04:03:34.813Z,0.00
2018-02-27T04:04:34.358Z,0.00
2018-02-27T04:05:34.803Z,0.00
2018-02-27T04:06:34.806Z,0.00
2018-02-27T04:07:34.098Z,0.00
2018-02-27T04:08:34.065Z,0.00
2018-02-27T04:09:34.802Z,0.00
2018-02-27T04:10:33.897Z,0.00
2018-02-27T04:11:33.972Z,0.00
2018-02-27T04:12:33.755Z,0.00
2018-02-27T04:13:33.781Z,0.00
2018-02-27T04:14:33.680Z,0.00
2018-02-27T04:15:33.681Z,0.00
2018-02-27T04:16:33.714Z,0.00
2018-02-27T04:17:33.526Z,0.00
2018-02-27T04:18:33.811Z,0.00
2018-02-27T04:19:33.405Z,0.00
2018-02-27T04:20:33.831Z,0.00
2018-02-27T04:21:33.507Z,0.00
2018-02-27T04:22:33.365Z,0.00
2018-02-27T04:23:33.259Z,0.00
2018-02-27T04:24:33.097Z,0.00
2018-02-27T04:25:33.077Z,0.00
2018-02-27T04:26:33.037Z,0.00
2018-02-27T04:27:33.135Z,0.00
2018-02-27T04:28:33.816Z,0.00
2018-02-27T04:29:33.846Z,0.00
2018-02-27T04:30:32.803Z,0.00
2018-02-27T04:31:33.310Z,0.00
2018-02-27T04:32:32.739Z,0.00
2018-02-27T04:33:32.651Z,0.00
2018-02-27T04:34:32.674Z,0.00
2018-02-27T04:35:32.591Z,0.00
2018-02-27T04:36:32.508Z,0.00
2018-02-27T04:37:32.473Z,0.00
2018-02-27T04:38:32.459Z,0.00
2018-02-27T04:39:32.530Z,0.00
2018-02-27T04:40:32.225Z,0.00
2018-02-27T04:41:32.176Z,0.00
2018-02-27T04:42:32.180Z,0.00
2018-02-27T04:43:32.202Z,0.00
2018-02-27T04:44:32.000Z,0.00
2018-02-27T04:45:31.956Z,0.00
2018-02-27T04:46:31.949Z,0.00
2018-02-27T04:47:31.928Z,0.00
2018-02-27T04:48:31.920Z,0.00
2018-02-27T04:49:31.743Z,0.00
2018-02-27T04:52:11.869Z,0.00
2018-02-27T04:53:11.898Z,0.00
2018-02-27T04:55:11.175Z,0.00
2018-02-27T04:58:10.270Z,0.00
2018-02-27T05:01:34.738Z,0.00
2018-02-27T05:02:34.955Z,0.00
2018-02-27T05:04:38.198Z,0.00
2018-02-27T05:05:38.028Z,0.00
2018-02-27T05:07:37.102Z,0.00
2018-02-27T05:08:37.120Z,0.00
2018-02-27T05:10:32.951Z,0.00
2018-02-27T05:13:29.056Z,0.00
2018-02-27T05:14:28.942Z,0.00
2018-02-27T05:15:28.868Z,0.00
2018-02-27T05:16:28.772Z,0.00
2018-02-27T05:17:28.898Z,0.00
2018-02-27T05:18:28.734Z,0.00
2018-02-27T05:19:28.830Z,0.00
2018-02-27T05:20:28.931Z,0.00
2018-02-27T05:21:28.441Z,0.00
2018-02-27T05:22:28.452Z,0.00
2018-02-27T05:23:28.430Z,0.00
2018-02-27T05:24:28.463Z,0.00
2018-02-27T05:25:28.291Z,0.00
2018-02-27T05:26:28.313Z,0.00
2018-02-27T05:27:28.550Z,0.00
2018-02-27T05:28:28.371Z,4.00
2018-02-27T05:29:28.407Z,4.00
2018-02-27T05:30:26.711Z,0.00
2018-02-27T05:31:25.993Z,4.00
2018-02-27T05:32:25.958Z,4.00
2018-02-27T05:33:25.914Z,4.00
2018-02-27T05:34:25.639Z,8.00
2018-02-27T05:35:25.529Z,8.00
2018-02-27T05:36:25.483Z,8.00
2018-02-27T05:37:25.496Z,12.00
2018-02-27T05:38:25.405Z,16.00
2018-02-27T05:39:25.338Z,16.00
2018-02-27T05:40:25.332Z,20.00
2018-02-27T05:41:25.585Z,28.00
2018-02-27T05:42:25.299Z,32.00
2018-02-27T05:43:25.241Z,36.00
2018-02-27T05:44:25.385Z,44.00
2018-02-27T05:45:24.992Z,52.00
2018-02-27T05:46:24.962Z,60.00
2018-02-27T05:47:24.874Z,72.00
2018-02-27T05:48:24.989Z,80.00
2018-02-27T05:49:24.829Z,96.00
2018-02-27T05:50:24.749Z,112.00
2018-02-27T05:51:24.658Z,128.00
2018-02-27T05:52:24.741Z,148.00
2018-02-27T05:53:25.072Z,172.00
2018-02-27T05:54:24.563Z,192.00
2018-02-27T05:55:24.442Z,220.00
2018-02-27T05:56:24.448Z,248.00
2018-02-27T05:57:24.409Z,280.00
2018-02-27T05:58:24.318Z,316.00
2018-02-27T05:59:24.393Z,356.00
2018-02-27T06:00:24.370Z,392.00
2018-02-27T06:01:24.227Z,440.00
2018-02-27T06:02:24.076Z,484.00
2018-02-27T06:03:23.988Z,532.00
2018-02-27T06:04:23.975Z,584.00
2018-02-27T06:05:24.003Z,636.00
2018-02-27T06:06:23.864Z,700.00
2018-02-27T06:07:24.557Z,764.00
2018-02-27T06:08:23.820Z,828.00
2018-02-27T06:09:23.632Z,900.00
2018-02-27T06:10:23.573Z,976.00
2018-02-27T06:11:23.566Z,1052.00
2018-02-27T06:12:24.064Z,1136.00
2018-02-27T06:13:24.060Z,1216.00
2018-02-27T06:14:23.526Z,1308.00
2018-02-27T06:15:23.349Z,1396.00
2018-02-27T06:16:23.353Z,1480.00
2018-02-27T06:17:23.424Z,1564.00
2018-02-27T06:18:23.266Z,1664.00
2018-02-27T06:19:23.104Z,1776.00
2018-02-27T06:20:23.570Z,1896.00
2018-02-27T06:21:22.998Z,2016.00
2018-02-27T06:22:23.558Z,2120.00
2018-02-27T06:23:23.011Z,2204.00
2018-02-27T06:24:22.811Z,2288.00
2018-02-27T06:25:22.878Z,2360.00
2018-02-27T06:26:22.729Z,2436.00
2018-02-27T06:27:22.684Z,2536.00
2018-02-27T06:28:23.054Z,2660.00
2018-02-27T06:29:22.821Z,2812.00
2018-02-27T06:30:22.629Z,2984.00
2018-02-27T06:31:22.423Z,3140.00
2018-02-27T06:32:22.570Z,3280.00
2018-02-27T06:33:22.349Z,3408.00
2018-02-27T06:34:22.271Z,3524.00
2018-02-27T06:35:22.240Z,3660.00
2018-02-27T06:36:22.142Z,3792.00
2018-02-27T06:37:22.582Z,3924.00
2018-02-27T06:38:22.144Z,4056.00
2018-02-27T06:39:22.587Z,4156.00
2018-02-27T06:40:22.016Z,4244.00
2018-02-27T06:41:21.867Z,4364.00
2018-02-27T06:42:21.916Z,4512.00
2018-02-27T06:43:21.727Z,4664.00
2018-02-27T06:44:22.851Z,4808.00
2018-02-27T06:45:21.790Z,4916.00
2018-02-27T06:46:21.705Z,5040.00
2018-02-27T06:47:21.687Z,5108.00
2018-02-27T06:48:21.517Z,5108.00
2018-02-27T06:49:21.449Z,5080.00
2018-02-27T06:50:21.472Z,5080.00
2018-02-27T06:51:21.331Z,5156.00
2018-02-27T06:52:21.242Z,5308.00
2018-02-27T06:53:21.171Z,5500.00
2018-02-27T06:54:21.146Z,5660.00
2018-02-27T06:55:21.102Z,5832.00
2018-02-27T06:56:21.055Z,5984.00
2018-02-27T06:57:21.171Z,6140.00
2018-02-27T06:58:21.008Z,6264.00
2018-02-27T06:59:20.863Z,6412.00
2018-02-27T07:00:20.932Z,6612.00
2018-02-27T07:01:20.897Z,6820.00
2018-02-27T07:02:20.945Z,6956.00
2018-02-27T07:03:20.629Z,7088.00
2018-02-27T07:04:20.680Z,7276.00
2018-02-27T07:05:20.648Z,7444.00
2018-02-27T07:06:20.500Z,7580.00
2018-02-27T07:07:20.426Z,7692.00
2018-02-27T07:08:20.396Z,7824.00
2018-02-27T07:09:21.072Z,7952.00
2018-02-27T07:10:21.077Z,8140.00
2018-02-27T07:11:20.324Z,8328.00
2018-02-27T07:12:20.141Z,8468.00
2018-02-27T07:13:20.098Z,8624.00
2018-02-27T07:14:20.062Z,8892.00
2018-02-27T07:15:19.992Z,9160.00
2018-02-27T07:16:20.007Z,9600.00
2018-02-27T07:17:19.987Z,10488.00
2018-02-27T07:18:19.962Z,11368.00
2018-02-27T07:19:19.759Z,12216.00
2018-02-27T07:20:19.848Z,12964.00
2018-02-27T07:21:19.720Z,14004.00
2018-02-27T07:22:19.699Z,15072.00
2018-02-27T07:23:19.645Z,15552.00
2018-02-27T07:24:19.527Z,15584.00
2018-02-27T07:25:19.555Z,15840.00
2018-02-27T07:26:19.426Z,16192.00
2018-02-27T07:27:19.431Z,16896.00
2018-02-27T07:28:19.330Z,17504.00
2018-02-27T07:29:19.259Z,17632.00
2018-02-27T07:30:19.273Z,18112.00
2018-02-27T07:31:19.337Z,18464.00
2018-02-27T07:32:19.198Z,18496.00
2018-02-27T07:33:19.206Z,17440.00
2018-02-27T07:34:19.001Z,18528.00
2018-02-27T07:35:18.967Z,19648.00
2018-02-27T07:36:18.945Z,19264.00
2018-02-27T07:37:18.891Z,16192.00
2018-02-27T07:38:18.832Z,17184.00
2018-02-27T07:39:20.899Z,15548.00
2018-02-27T07:40:19.554Z,15080.00
2018-02-27T07:41:18.767Z,15440.00
2018-02-27T07:42:18.615Z,17248.00
2018-02-27T07:43:18.557Z,18208.00
2018-02-27T07:44:18.517Z,18400.00
2018-02-27T07:45:19.058Z,18592.00
2018-02-27T07:46:19.077Z,19392.00
2018-02-27T07:47:18.542Z,17696.00
2018-02-27T07:48:18.312Z,19392.00
2018-02-27T07:49:18.304Z,22112.00
2018-02-27T07:50:18.259Z,24672.00
2018-02-27T07:51:18.256Z,24576.00
2018-02-27T07:52:18.123Z,24928.00
2018-02-27T07:53:18.115Z,24288.00
2018-02-27T07:54:18.051Z,20320.00
2018-02-27T07:55:18.242Z,19968.00
2018-02-27T07:56:18.051Z,18784.00
2018-02-27T07:57:17.888Z,17792.00
2018-02-27T07:58:17.902Z,19552.00
2018-02-27T07:59:18.020Z,17824.00
2018-02-27T08:00:18.557Z,21696.00
2018-02-27T08:01:17.728Z,24704.00
2018-02-27T08:02:17.691Z,24512.00
2018-02-27T08:03:17.834Z,22336.00
2018-02-27T08:04:17.814Z,19776.00
2018-02-27T08:05:17.579Z,18336.00
2018-02-27T08:06:17.481Z,19712.00
2018-02-27T08:07:17.481Z,21792.00
2018-02-27T08:08:18.063Z,20864.00
2018-02-27T08:09:17.486Z,22368.00
2018-02-27T08:10:17.328Z,28672.00
2018-02-27T08:11:17.351Z,32160.00
2018-02-27T08:12:17.350Z,35136.00
2018-02-27T08:13:17.155Z,36320.00
2018-02-27T08:14:17.112Z,33120.00
2018-02-27T08:15:17.168Z,28864.00
2018-02-27T08:16:17.075Z,30368.00
2018-02-27T08:17:16.999Z,32224.00
2018-02-27T08:18:17.058Z,30944.00
2018-02-27T08:19:17.018Z,24864.00
2018-02-27T08:20:16.865Z,23648.00
2018-02-27T08:21:16.800Z,32320.00
2018-02-27T08:22:16.856Z,34688.00
2018-02-27T08:23:16.843Z,30816.00
2018-02-27T08:24:16.783Z,26208.00
2018-02-27T08:25:16.628Z,38016.00
2018-02-27T08:26:16.663Z,47744.00
2018-02-27T08:27:16.684Z,50400.00
2018-02-27T08:28:16.563Z,43872.00
2018-02-27T08:29:20.175Z,30688.00
2018-02-27T08:30:16.527Z,28448.00
2018-02-27T08:31:17.060Z,29152.00
2018-02-27T08:32:16.361Z,25760.00
2018-02-27T08:33:16.334Z,38656.00
2018-02-27T08:34:17.072Z,32832.00
2018-02-27T08:35:16.330Z,24992.00
2018-02-27T08:36:16.297Z,29344.00
2018-02-27T08:37:16.224Z,27680.00
2018-02-27T08:38:16.562Z,28352.00
2018-02-27T08:39:16.045Z,30912.00
2018-02-27T08:40:15.968Z,35200.00
2018-02-27T08:41:16.563Z,40128.00
2018-02-27T08:42:16.562Z,44640.00
2018-02-27T08:43:16.563Z,47456.00
2018-02-27T08:44:15.819Z,37952.00
2018-02-27T08:45:16.599Z,29728.00
2018-02-27T08:46:15.907Z,34944.00
2018-02-27T08:47:16.593Z,39008.00
2018-02-27T08:48:15.653Z,32096.00
2018-02-27T08:49:15.609Z,30752.00
2018-02-27T08:50:16.062Z,30624.00
2018-02-27T08:51:15.551Z,35328.00
2018-02-27T08:52:15.644Z,44192.00
2018-02-27T08:53:15.458Z,36864.00
2018-02-27T08:54:15.410Z,32704.00
2018-02-27T08:55:15.376Z,40864.00
2018-02-27T08:56:15.281Z,46272.00
2018-02-27T08:57:15.263Z,45568.00
2018-02-27T08:58:16.075Z,37664.00
2018-02-27T08:59:15.417Z,34528.00
2018-02-27T09:00:15.138Z,37344.00
2018-02-27T09:01:15.626Z,38080.00
2018-02-27T09:02:15.591Z,48672.00
2018-02-27T09:03:15.131Z,48256.00
2018-02-27T09:04:15.108Z,46304.00
2018-02-27T09:05:14.955Z,43488.00
2018-02-27T09:06:15.027Z,36768.00
2018-02-27T09:07:14.971Z,39264.00
2018-02-27T09:08:14.900Z,46080.00
2018-02-27T09:09:14.808Z,46720.00
2018-02-27T09:10:14.854Z,45344.00
2018-02-27T09:11:14.844Z,46432.00
2018-02-27T09:12:14.942Z,45472.00
2018-02-27T09:13:14.707Z,49984.00
2018-02-27T09:14:14.713Z,49664.00
2018-02-27T09:15:14.790Z,50944.00
2018-02-27T09:16:14.509Z,49600.00
2018-02-27T09:17:14.603Z,45184.00
2018-02-27T09:18:14.489Z,40128.00
2018-02-27T09:19:14.482Z,35680.00
2018-02-27T09:20:15.082Z,39424.00
2018-02-27T09:21:14.418Z,49024.00
2018-02-27T09:22:14.319Z,52928.00
2018-02-27T09:23:14.297Z,54944.00
2018-02-27T09:24:14.242Z,51584.00
2018-02-27T09:25:14.162Z,49664.00
2018-02-27T09:26:14.216Z,49184.00
2018-02-27T09:27:15.092Z,51232.00
2018-02-27T09:28:14.118Z,57184.00
2018-02-27T09:29:14.135Z,56000.00
2018-02-27T09:30:14.022Z,51584.00
2018-02-27T09:31:14.126Z,47008.00
2018-02-27T09:32:14.044Z,49184.00
2018-02-27T09:33:14.581Z,46592.00
2018-02-27T09:34:14.586Z,51936.00
2018-02-27T09:35:14.040Z,52960.00
2018-02-27T09:36:13.884Z,55296.00
2018-02-27T09:37:13.879Z,55904.00
2018-02-27T09:38:13.777Z,54720.00
2018-02-27T09:39:13.856Z,58496.00
2018-02-27T09:40:13.637Z,57824.00
2018-02-27T09:41:13.614Z,55616.00
2018-02-27T09:42:13.744Z,56128.00
2018-02-27T09:43:13.559Z,52864.00
2018-02-27T09:44:13.534Z,58496.00
2018-02-27T09:45:13.472Z,55808.00
2018-02-27T09:46:13.581Z,59232.00
2018-02-27T09:47:13.489Z,59648.00
2018-02-27T09:48:13.392Z,60992.00
2018-02-27T09:49:13.418Z,62784.00
2018-02-27T09:50:13.371Z,63328.00
2018-02-27T09:51:13.315Z,61888.00
2018-02-27T09:52:14.134Z,57504.00
2018-02-27T09:53:14.080Z,59392.00
2018-02-27T09:54:13.239Z,57216.00
2018-02-27T09:55:13.129Z,59360.00
2018-02-27T09:56:13.141Z,61088.00
2018-02-27T09:57:13.064Z,60448.00
2018-02-27T09:58:13.594Z,60448.00
2018-02-27T09:59:13.112Z,60192.00
2018-02-27T10:00:13.112Z,65888.00
2018-02-27T10:01:13.130Z,66048.00
2018-02-27T10:02:12.948Z,64640.00
2018-02-27T10:03:12.862Z,57984.00
2018-02-27T10:04:12.881Z,56096.00
2018-02-27T10:05:12.826Z,59392.00
2018-02-27T10:06:13.613Z,59168.00
2018-02-27T10:07:12.765Z,62080.00
2018-02-27T10:08:12.731Z,57536.00
2018-02-27T10:09:12.759Z,56960.00
2018-02-27T10:10:12.734Z,65216.00
2018-02-27T10:11:12.632Z,66816.00
2018-02-27T10:12:12.551Z,68384.00
2018-02-27T10:13:12.676Z,62816.00
2018-02-27T10:14:12.534Z,61440.00
2018-02-27T10:15:12.484Z,66080.00
2018-02-27T10:16:12.606Z,55968.00
2018-02-27T10:17:12.436Z,54368.00
2018-02-27T10:18:12.630Z,57600.00
2018-02-27T10:19:12.376Z,64928.00
2018-02-27T10:20:13.094Z,65376.00
2018-02-27T10:21:12.299Z,66272.00
2018-02-27T10:22:12.214Z,64864.00
2018-02-27T10:23:12.391Z,61504.00
2018-02-27T10:24:12.531Z,63328.00
2018-02-27T10:25:12.245Z,60640.00
2018-02-27T10:26:12.154Z,67552.00
2018-02-27T10:27:12.096Z,69536.00
2018-02-27T10:28:12.627Z,66464.00
2018-02-27T10:29:12.099Z,63296.00
2018-02-27T10:30:11.992Z,62048.00
2018-02-27T10:31:12.055Z,64416.00
2018-02-27T10:32:11.946Z,65536.00
2018-02-27T10:33:12.043Z,67840.00
2018-02-27T10:34:11.866Z,67328.00
2018-02-27T10:35:11.826Z,66656.00
2018-02-27T10:36:11.776Z,65984.00
2018-02-27T10:37:11.886Z,63200.00
2018-02-27T10:38:12.602Z,67904.00
2018-02-27T10:39:11.638Z,70752.00
2018-02-27T10:40:11.701Z,70080.00
2018-02-27T10:41:11.849Z,69056.00
2018-02-27T10:42:11.564Z,67360.00
2018-02-27T10:43:11.480Z,72672.00
2018-02-27T10:44:11.539Z,75232.00
2018-02-27T10:45:11.654Z,70496.00
2018-02-27T10:46:12.123Z,69824.00
2018-02-27T10:47:12.104Z,67456.00
2018-02-27T10:48:11.456Z,70752.00
2018-02-27T10:49:11.498Z,73600.00
2018-02-27T10:50:11.391Z,65952.00
2018-02-27T10:51:12.138Z,65472.00
2018-02-27T10:52:11.286Z,66944.00
2018-02-27T10:53:11.362Z,63840.00
2018-02-27T10:54:11.221Z,67360.00
2018-02-27T10:55:11.122Z,66240.00
2018-02-27T10:56:11.044Z,66272.00
2018-02-27T10:57:11.625Z,68032.00
2018-02-27T10:58:11.004Z,66656.00
2018-02-27T10:59:11.094Z,67360.00
2018-02-27T11:00:11.195Z,68640.00
2018-02-27T11:01:11.018Z,72352.00
2018-02-27T11:02:10.962Z,78976.00
2018-02-27T11:03:10.896Z,76640.00
2018-02-27T11:04:11.064Z,69952.00
2018-02-27T11:05:10.804Z,67936.00
2018-02-27T11:06:11.608Z,72256.00
2018-02-27T11:07:10.696Z,78368.00
2018-02-27T11:08:11.002Z,85472.00
2018-02-27T11:09:11.124Z,80352.00
2018-02-27T11:10:10.783Z,70976.00
2018-02-27T11:11:10.656Z,65984.00
2018-02-27T11:12:10.592Z,67232.00
2018-02-27T11:13:10.478Z,69376.00
2018-02-27T11:14:10.559Z,72640.00
2018-02-27T11:15:10.477Z,63968.00
2018-02-27T11:16:10.452Z,60960.00
2018-02-27T11:17:10.479Z,61184.00
2018-02-27T11:18:10.349Z,67680.00
2018-02-27T11:19:10.345Z,71680.00
2018-02-27T11:20:10.313Z,74272.00
2018-02-27T11:21:10.448Z,72320.00
2018-02-27T11:22:10.281Z,68672.00
2018-02-27T11:23:10.123Z,68896.00
2018-02-27T11:24:10.155Z,68992.00
2018-02-27T11:25:10.622Z,67392.00
2018-02-27T11:26:10.158Z,69248.00
2018-02-27T11:27:10.005Z,69024.00
2018-02-27T11:28:10.036Z,65760.00
2018-02-27T11:29:10.023Z,70656.00
2018-02-27T11:30:10.622Z,69632.00
2018-02-27T11:31:10.631Z,67552.00
2018-02-27T11:32:09.957Z,67808.00
2018-02-27T11:33:10.726Z,66624.00
2018-02-27T11:34:09.830Z,64480.00
2018-02-27T11:35:09.943Z,63776.00
2018-02-27T11:36:09.871Z,60672.00
2018-02-27T11:37:10.159Z,57568.00
2018-02-27T11:38:10.122Z,63552.00
2018-02-27T11:39:09.684Z,66144.00
2018-02-27T11:40:09.552Z,72448.00
2018-02-27T11:41:09.664Z,77568.00
2018-02-27T11:42:09.585Z,75136.00
2018-02-27T11:43:09.559Z,62688.00
2018-02-27T11:44:09.453Z,68896.00
2018-02-27T11:45:09.429Z,74560.00
2018-02-27T11:46:09.462Z,74400.00
2018-02-27T11:47:10.144Z,72480.00
2018-02-27T11:48:11.419Z,68000.00
2018-02-27T11:49:09.335Z,61056.00
2018-02-27T11:50:09.286Z,71424.00
2018-02-27T11:51:10.139Z,74016.00
2018-02-27T11:52:09.240Z,77856.00
2018-02-27T11:53:09.458Z,78464.00
2018-02-27T11:54:09.061Z,76832.00
2018-02-27T11:55:09.069Z,70240.00
2018-02-27T11:56:09.043Z,73632.00
2018-02-27T11:57:09.096Z,68032.00
2018-02-27T11:58:09.050Z,66368.00
2018-02-27T11:59:09.040Z,61984.00
2018-02-27T12:00:11.943Z,61664.00
2018-02-27T12:01:08.995Z,58496.00
2018-02-27T12:02:08.774Z,65856.00
2018-02-27T12:03:09.648Z,66016.00
2018-02-27T12:04:08.730Z,63456.00
2018-02-27T12:05:08.670Z,64672.00
2018-02-27T12:06:08.780Z,67328.00
2018-02-27T12:07:08.829Z,63392.00
2018-02-27T12:08:08.680Z,71264.00
2018-02-27T12:09:11.316Z,75136.00
2018-02-27T12:10:08.544Z,81088.00
2018-02-27T12:11:09.140Z,81760.00
2018-02-27T12:12:08.422Z,74400.00
2018-02-27T12:13:08.388Z,73280.00
2018-02-27T12:14:08.368Z,76256.00
2018-02-27T12:15:08.321Z,80448.00
2018-02-27T12:16:08.325Z,84384.00
2018-02-27T12:17:09.139Z,89856.00
2018-02-27T12:18:08.165Z,81824.00
2018-02-27T12:19:08.226Z,78496.00
2018-02-27T12:20:08.236Z,75648.00
2018-02-27T12:21:08.198Z,85536.00
2018-02-27T12:22:08.066Z,83264.00
2018-02-27T12:23:08.038Z,72864.00
2018-02-27T12:24:07.953Z,50240.00
2018-02-27T12:25:08.635Z,35392.00
2018-02-27T12:26:07.885Z,34752.00
2018-02-27T12:27:07.814Z,34240.00
2018-02-27T12:28:07.920Z,31936.00
2018-02-27T12:29:07.812Z,30112.00
2018-02-27T12:30:07.828Z,33376.00
2018-02-27T12:31:07.687Z,34752.00
2018-02-27T12:32:07.665Z,32608.00
2018-02-27T12:33:09.587Z,30368.00
2018-02-27T12:34:07.673Z,30432.00
2018-02-27T12:35:07.611Z,32128.00
2018-02-27T12:36:07.508Z,34336.00
2018-02-27T12:37:07.508Z,33760.00
2018-02-27T12:38:09.324Z,33216.00
2018-02-27T12:39:07.710Z,34592.00
2018-02-27T12:40:07.361Z,32128.00